Time;durP1;ratioP1;P1;durP2;ratioP2;P2;SDS_P1;SDS_P2;PMS_P1;PMS_P2;Temp;Humidity;BMP_temperature;BMP_pressure;BME280_temperature;BME280_humidity;BME280_pressure;Samples;Min_cycle;Max_cycle;Signal;HPM_P1;HPM_P2
2023/08/14 00:01:43;;;;;;;6.88;3.80;;;;;;;16.52;92.64;101542.13;5012439;28;20028;-69
2023/08/14 00:04:08;;;;;;;5.00;3.65;;;;;;;16.57;93.67;101540.53;5015019;28;20026;-69
2023/08/14 00:06:33;;;;;;;3.60;3.22;;;;;;;16.56;93.70;101543.41;5018152;28;20017;-69
2023/08/14 00:08:58;;;;;;;4.65;3.75;;;;;;;16.59;93.79;101548.38;5020878;28;20022;-69
2023/08/14 00:11:24;;;;;;;5.65;4.10;;;;;;;16.59;94.10;101548.38;5016841;28;20430;-70
2023/08/14 00:13:54;;;;;;;5.82;3.78;;;;;;;16.55;93.83;101553.31;5015961;28;20029;-69
2023/08/14 00:16:20;;;;;;;6.43;4.88;;;;;;;16.55;93.94;101550.63;5016593;28;20398;-69
2023/08/14 00:18:45;;;;;;;4.35;3.58;;;;;;;16.43;93.84;101544.94;5014555;28;20490;-69
2023/08/14 00:21:11;;;;;;;6.25;3.50;;;;;;;16.39;93.89;101542.81;5015733;28;20037;-68
2023/08/14 00:23:37;;;;;;;7.05;3.60;;;;;;;16.30;93.86;101543.97;5017593;28;20060;-69
2023/08/14 00:26:02;;;;;;;4.80;3.78;;;;;;;16.23;93.90;101543.09;5012943;28;20100;-69
2023/08/14 00:28:27;;;;;;;5.57;3.60;;;;;;;16.15;94.00;101545.88;5014105;28;20040;-69
2023/08/14 00:30:52;;;;;;;6.35;5.05;;;;;;;16.20;94.03;101543.47;5017549;28;20026;-70
2023/08/14 00:33:18;;;;;;;4.50;3.95;;;;;;;16.11;94.33;101534.72;5013777;28;20038;-68
2023/08/14 00:35:43;;;;;;;10.50;5.28;;;;;;;16.15;94.82;101537.84;5020528;28;20522;-69
2023/08/14 00:38:08;;;;;;;4.55;4.15;;;;;;;16.13;94.90;101534.50;5015828;28;20083;-69
2023/08/14 00:40:34;;;;;;;5.28;4.35;;;;;;;16.19;95.24;101537.28;5014953;28;20029;-69
2023/08/14 00:42:59;;;;;;;9.57;4.53;;;;;;;16.23;95.17;101540.41;5012115;28;20046;-68
2023/08/14 00:45:24;;;;;;;9.10;5.28;;;;;;;16.27;95.51;101539.00;5017269;28;20032;-69
2023/08/14 00:47:50;;;;;;;8.90;5.50;;;;;;;16.30;95.45;101544.81;5016338;28;20030;-69
2023/08/14 00:50:18;;;;;;;7.65;4.93;;;;;;;16.20;95.15;101544.31;5011174;28;20040;-69
2023/08/14 00:52:46;;;;;;;8.48;5.10;;;;;;;16.17;94.71;101527.75;5011544;28;20083;-69
2023/08/14 00:55:18;;;;;;;7.20;5.18;;;;;;;16.30;95.13;101541.31;5011059;28;20483;-69
2023/08/14 00:57:44;;;;;;;6.22;5.47;;;;;;;16.29;95.20;101528.94;5012047;28;20029;-69
2023/08/14 01:00:11;;;;;;;6.55;5.00;;;;;;;16.31;94.90;101524.19;5011541;28;20033;-69
2023/08/14 01:02:37;;;;;;;7.05;4.80;;;;;;;16.28;95.13;101525.41;5015648;28;20113;-70
2023/08/14 01:05:02;;;;;;;5.65;5.05;;;;;;;16.26;94.69;101527.47;5014104;28;20116;-70
2023/08/14 01:07:29;;;;;;;10.65;5.30;;;;;;;16.28;94.82;101521.91;5013668;28;20025;-69
2023/08/14 01:09:56;;;;;;;9.98;6.50;;;;;;;16.26;95.00;101519.41;5018253;28;20450;-70
2023/08/14 01:12:30;;;;;;;9.70;5.60;;;;;;;16.28;95.27;101529.94;5015093;28;20021;-69
2023/08/14 01:15:03;;;;;;;7.90;6.15;;;;;;;16.31;95.36;101525.03;5022190;28;20032;-69
2023/08/14 01:17:31;;;;;;;6.90;5.38;;;;;;;16.29;95.24;101524.38;5015983;28;20060;-69
2023/08/14 01:19:57;;;;;;;11.18;6.00;;;;;;;16.32;94.98;101518.66;5016522;28;20026;-69
2023/08/14 01:23:10;;;;;;;11.52;6.68;;;;;;;16.40;95.17;101525.72;5013260;28;20052;-71
2023/08/14 01:25:37;;;;;;;8.98;6.28;;;;;;;16.37;94.99;101510.03;5005889;28;20037;-69
2023/08/14 01:28:03;;;;;;;11.57;6.90;;;;;;;16.35;95.15;101515.56;5014355;28;20410;-69
2023/08/14 01:30:29;;;;;;;12.07;7.03;;;;;;;16.40;95.29;101515.81;5017314;28;20450;-70
2023/08/14 01:32:55;;;;;;;11.93;7.18;;;;;;;16.40;95.28;101512.31;5011886;28;20033;-68
2023/08/14 01:35:23;;;;;;;9.50;7.00;;;;;;;16.40;95.45;101513.16;5018454;28;20603;-69
2023/08/14 01:37:57;;;;;;;7.93;5.45;;;;;;;16.30;95.21;101507.28;5010612;28;20022;-68
2023/08/14 01:40:39;;;;;;;7.65;5.63;;;;;;;16.28;94.84;101506.66;5014909;28;20060;-69
2023/08/14 01:43:10;;;;;;;6.28;4.85;;;;;;;16.17;94.66;101517.03;5017982;28;20042;-68
2023/08/14 01:45:36;;;;;;;7.53;5.22;;;;;;;16.10;94.34;101506.25;5015805;28;20159;-69
2023/08/14 01:48:06;;;;;;;7.22;4.95;;;;;;;16.14;94.24;101504.00;5008849;28;20513;-69
2023/08/14 01:50:32;;;;;;;7.35;4.82;;;;;;;16.09;94.30;101481.31;5009873;28;20585;-68
2023/08/14 01:52:57;;;;;;;7.30;5.68;;;;;;;16.16;94.46;101477.84;5011614;28;20026;-69
2023/08/14 01:55:24;;;;;;;8.35;5.47;;;;;;;16.10;94.46;101468.75;5012264;28;20033;-69
2023/08/14 01:57:51;;;;;;;6.25;4.55;;;;;;;15.93;93.88;101475.38;5019350;28;20029;-70
2023/08/14 02:00:16;;;;;;;5.60;4.57;;;;;;;15.98;94.09;101475.63;5020214;28;20055;-69
2023/08/14 02:02:41;;;;;;;5.90;4.78;;;;;;;15.98;94.17;101481.81;5012949;28;20101;-69
2023/08/14 02:05:07;;;;;;;6.50;4.35;;;;;;;15.99;94.58;101475.44;5013049;28;20025;-69
2023/08/14 02:07:32;;;;;;;6.32;5.25;;;;;;;15.98;94.41;101471.09;5012494;28;20503;-69
2023/08/14 02:09:57;;;;;;;6.93;5.47;;;;;;;16.00;94.07;101458.34;5014768;28;20038;-70
2023/08/14 02:12:23;;;;;;;10.65;6.15;;;;;;;15.95;94.14;101455.41;5009921;28;20507;-69
2023/08/14 02:14:48;;;;;;;9.48;6.22;;;;;;;15.91;94.06;101467.53;5019709;28;20029;-69
2023/08/14 02:17:13;;;;;;;8.48;5.40;;;;;;;15.95;94.11;101460.78;5014304;28;20037;-69
2023/08/14 02:19:38;;;;;;;10.95;7.15;;;;;;;15.94;94.20;101463.66;5011663;28;20029;-68
2023/08/14 02:22:04;;;;;;;7.30;5.60;;;;;;;15.90;94.45;101465.88;5012162;28;20041;-70
2023/08/14 02:24:29;;;;;;;7.43;4.97;;;;;;;15.90;94.38;101462.34;5011690;28;20380;-69
2023/08/14 02:26:54;;;;;;;6.85;5.38;;;;;;;15.87;94.32;101460.88;5011806;28;20549;-69
2023/08/14 02:29:19;;;;;;;8.23;6.53;;;;;;;15.88;94.23;101459.03;5009843;28;20033;-69
2023/08/14 02:31:46;;;;;;;11.23;8.75;;;;;;;15.89;94.57;101464.19;5014923;28;20068;-69
2023/08/14 02:34:12;;;;;;;12.15;8.57;;;;;;;15.91;94.87;101453.31;5013661;28;20704;-69
2023/08/14 02:36:37;;;;;;;12.77;9.35;;;;;;;15.94;94.85;101451.09;5013546;28;20123;-69
2023/08/14 02:39:02;;;;;;;13.38;9.32;;;;;;;15.97;94.92;101447.19;5014937;28;20029;-69
2023/08/14 02:41:29;;;;;;;12.38;8.48;;;;;;;15.89;94.88;101450.78;5014839;28;20116;-70
2023/08/14 02:43:54;;;;;;;11.75;7.93;;;;;;;15.88;94.97;101440.28;5011852;28;20510;-70
2023/08/14 02:46:19;;;;;;;9.00;7.38;;;;;;;15.86;94.48;101447.66;5010844;28;20030;-69
2023/08/14 02:48:45;;;;;;;12.25;7.40;;;;;;;15.83;94.66;101448.88;5008208;28;20159;-69
2023/08/14 02:51:10;;;;;;;10.13;7.72;;;;;;;15.74;94.41;101448.19;5011279;28;20030;-70
2023/08/14 02:53:35;;;;;;;12.18;7.57;;;;;;;15.74;94.38;101448.19;5016013;28;20048;-69
2023/08/14 02:56:01;;;;;;;4.57;3.50;;;;;;;15.57;93.97;101445.88;5013066;28;20450;-70
2023/08/14 02:58:26;;;;;;;4.22;3.42;;;;;;;15.47;93.44;101451.53;5015684;28;20029;-68
2023/08/14 03:00:51;;;;;;;6.20;4.85;;;;;;;15.48;93.43;101440.66;5019059;28;20025;-68
2023/08/14 03:03:17;;;;;;;7.68;4.80;;;;;;;15.47;93.87;101439.00;5016718;28;20040;-69
2023/08/14 03:05:42;;;;;;;11.00;5.18;;;;;;;15.43;93.96;101440.38;5010250;28;20045;-69
2023/08/14 03:08:08;;;;;;;8.35;5.45;;;;;;;15.41;94.21;101436.25;5013842;28;20026;-69
2023/08/14 03:10:33;;;;;;;6.30;5.40;;;;;;;15.43;94.34;101434.19;5014198;28;20503;-69
2023/08/14 03:13:00;;;;;;;5.97;5.38;;;;;;;15.42;94.33;101437.91;5013545;28;20140;-68
2023/08/14 03:15:25;;;;;;;6.03;5.03;;;;;;;15.39;94.33;101427.56;5019929;28;20380;-70
2023/08/14 03:17:50;;;;;;;5.90;5.20;;;;;;;15.44;94.31;101435.84;5015808;28;20593;-69
2023/08/14 03:20:16;;;;;;;6.50;5.32;;;;;;;15.47;94.26;101440.84;5014673;28;20026;-69
2023/08/14 03:22:41;;;;;;;5.38;4.72;;;;;;;15.49;94.31;101444.16;5015179;28;20407;-70
2023/08/14 03:25:07;;;;;;;5.13;4.60;;;;;;;15.47;94.06;101448.88;5014888;28;20040;-69
2023/08/14 03:27:32;;;;;;;7.63;5.55;;;;;;;15.45;94.20;101448.22;5013758;28;20040;-68
2023/08/14 03:29:57;;;;;;;8.68;5.40;;;;;;;15.43;93.82;101447.59;5016865;28;20596;-69
2023/08/14 03:32:22;;;;;;;9.63;6.80;;;;;;;15.45;93.98;101450.91;5018146;28;20030;-68
2023/08/14 03:34:48;;;;;;;8.15;6.88;;;;;;;15.36;94.04;101449.34;5019403;28;20508;-69
2023/08/14 03:37:13;;;;;;;9.65;6.07;;;;;;;15.37;94.65;101443.00;5021523;28;20534;-69
2023/08/14 03:39:38;;;;;;;11.98;7.88;;;;;;;15.39;94.29;101440.94;5012780;28;20041;-68
2023/08/14 03:42:04;;;;;;;12.88;8.55;;;;;;;15.37;94.57;101445.66;5014543;28;20030;-68
2023/08/14 03:44:29;;;;;;;13.38;9.45;;;;;;;15.39;94.99;101446.31;5017411;28;20037;-69
2023/08/14 03:46:54;;;;;;;13.10;10.82;;;;;;;15.40;94.98;101437.25;5018011;28;20026;-69
2023/08/14 03:49:19;;;;;;;11.20;9.43;;;;;;;15.42;95.35;101437.91;5018336;28;20036;-70
2023/08/14 03:51:45;;;;;;;16.30;9.80;;;;;;;15.36;95.40;101444.84;5018842;28;20030;-69
2023/08/14 03:54:10;;;;;;;11.68;7.05;;;;;;;15.33;95.35;101444.38;5011563;28;20029;-69
2023/08/14 03:56:35;;;;;;;9.43;7.32;;;;;;;15.29;94.92;101449.25;5013588;28;20093;-69
2023/08/14 03:59:01;;;;;;;10.38;7.05;;;;;;;15.29;95.08;101449.25;5013071;28;20108;-68
2023/08/14 04:01:26;;;;;;;10.20;8.20;;;;;;;15.31;95.22;101444.53;5015068;28;20557;-69
2023/08/14 04:03:51;;;;;;;10.77;8.90;;;;;;;15.32;95.00;101443.53;5018973;28;20029;-69
2023/08/14 04:06:18;;;;;;;10.75;8.75;;;;;;;15.34;95.07;101449.53;5011923;28;20030;-68
2023/08/14 04:08:43;;;;;;;15.15;11.02;;;;;;;15.39;95.32;101446.31;5015685;28;20628;-68
2023/08/14 04:11:09;;;;;;;11.32;9.57;;;;;;;15.38;95.73;101453.50;5013144;28;20013;-68
2023/08/14 04:13:34;;;;;;;10.70;9.25;;;;;;;15.38;96.11;101441.97;5017927;28;20072;-68
2023/08/14 04:16:00;;;;;;;12.18;9.90;;;;;;;15.42;96.18;101444.09;5016557;28;20045;-69
2023/08/14 04:18:26;;;;;;;16.55;12.45;;;;;;;15.49;96.42;101438.81;5015867;28;20029;-69
2023/08/14 04:20:52;;;;;;;14.48;11.93;;;;;;;15.51;96.99;101434.09;5015213;28;20037;-69
2023/08/14 04:23:17;;;;;;;17.60;12.40;;;;;;;15.50;97.29;101427.06;5014186;28;20037;-69
2023/08/14 04:25:43;;;;;;;16.85;12.20;;;;;;;15.53;97.70;101436.56;5021439;28;20104;-69
2023/08/14 04:28:08;;;;;;;15.95;11.60;;;;;;;15.48;97.96;101427.25;5018474;28;20037;-69
2023/08/14 04:30:33;;;;;;;17.48;12.25;;;;;;;15.53;98.44;101426.69;5015508;28;20053;-69
2023/08/14 04:32:59;;;;;;;24.85;12.38;;;;;;;15.55;98.62;101421.16;5014739;28;20041;-69
2023/08/14 04:35:24;;;;;;;19.20;12.25;;;;;;;15.56;99.04;101420.97;5021914;28;20502;-69
2023/08/14 04:37:49;;;;;;;16.02;11.77;;;;;;;15.57;98.89;101417.25;5021424;28;20586;-69
2023/08/14 04:40:14;;;;;;;15.93;11.70;;;;;;;15.58;99.60;101416.28;5013031;28;20036;-69
2023/08/14 04:42:40;;;;;;;16.80;11.98;;;;;;;15.61;99.64;101420.41;5016720;28;20517;-69
2023/08/14 04:45:06;;;;;;;18.90;12.68;;;;;;;15.63;99.87;101415.72;5014201;28;20032;-69
2023/08/14 04:47:31;;;;;;;19.42;12.45;;;;;;;15.63;99.88;101421.09;5013082;28;20076;-69
2023/08/14 04:49:56;;;;;;;19.10;11.70;;;;;;;15.68;99.99;101421.34;5011811;28;20049;-69
2023/08/14 04:52:22;;;;;;;16.15;11.52;;;;;;;15.69;100.00;101414.97;5011383;28;20030;-69
2023/08/14 04:54:47;;;;;;;19.90;11.95;;;;;;;15.73;100.00;101414.41;5012000;28;20029;-68
2023/08/14 04:57:13;;;;;;;18.77;12.20;;;;;;;15.75;100.00;101415.03;5011979;28;20760;-69
2023/08/14 04:59:38;;;;;;;17.10;11.07;;;;;;;15.76;100.00;101410.50;5013289;28;20761;-69
2023/08/14 05:02:04;;;;;;;15.45;10.38;;;;;;;15.76;100.00;101416.69;5014149;28;20025;-70
2023/08/14 05:04:29;;;;;;;13.52;11.25;;;;;;;15.77;99.76;101402.28;5017880;28;20458;-69
2023/08/14 05:06:54;;;;;;;14.40;10.27;;;;;;;15.79;99.96;101400.22;5014602;28;20044;-69
2023/08/14 05:09:19;;;;;;;17.08;11.60;;;;;;;15.86;99.95;101397.59;5016267;28;20725;-69
2023/08/14 05:11:45;;;;;;;21.90;12.00;;;;;;;15.93;100.00;101397.69;5014464;28;20044;-69
2023/08/14 05:14:10;;;;;;;14.23;11.05;;;;;;;15.98;100.00;101398.78;5020531;28;20017;-69
2023/08/14 05:16:35;;;;;;;16.88;12.70;;;;;;;16.02;100.00;101388.50;5016043;28;20025;-69
2023/08/14 05:19:00;;;;;;;15.50;11.95;;;;;;;16.07;100.00;101388.75;5016273;28;20026;-69
2023/08/14 05:21:26;;;;;;;15.70;12.40;;;;;;;16.13;100.00;101387.13;5018952;28;20040;-69
2023/08/14 05:23:51;;;;;;;16.10;12.63;;;;;;;16.17;100.00;101389.22;5022722;28;20041;-69
2023/08/14 05:26:16;;;;;;;18.92;12.45;;;;;;;16.25;100.00;101394.47;5014357;28;20025;-69
2023/08/14 05:28:41;;;;;;;17.85;12.73;;;;;;;16.28;100.00;101388.72;5020145;28;20494;-70
2023/08/14 05:31:07;;;;;;;20.67;12.90;;;;;;;16.30;100.00;101389.34;5019486;28;20732;-69
2023/08/14 05:33:33;;;;;;;21.63;12.95;;;;;;;16.31;100.00;101391.00;5015507;28;20036;-68
2023/08/14 05:35:58;;;;;;;17.48;12.95;;;;;;;16.39;100.00;101387.34;5013727;28;20033;-69
2023/08/14 05:38:24;;;;;;;17.10;13.05;;;;;;;16.41;100.00;101391.47;5014204;28;20041;-69
2023/08/14 05:40:49;;;;;;;22.75;13.73;;;;;;;16.42;100.00;101398.50;5019717;28;20029;-69
2023/08/14 05:43:14;;;;;;;21.67;13.73;;;;;;;16.45;100.00;101399.13;5012089;28;20029;-69
2023/08/14 05:45:44;;;;;;;18.42;13.23;;;;;;;16.45;100.00;101397.28;5017808;28;20490;-69
2023/08/14 05:48:10;;;;;;;15.43;12.73;;;;;;;16.47;100.00;101403.28;5012881;28;20032;-69
2023/08/14 05:50:36;;;;;;;18.90;12.80;;;;;;;16.54;100.00;101395.31;5019005;28;20110;-69
2023/08/14 05:53:06;;;;;;;20.45;13.30;;;;;;;16.55;100.00;101402.31;5025029;28;20055;-69
2023/08/14 05:55:32;;;;;;;20.65;13.40;;;;;;;16.60;100.00;101398.00;5018426;28;20536;-70
2023/08/14 05:57:58;;;;;;;15.70;12.15;;;;;;;16.62;100.00;101409.38;5024250;28;20026;-70
2023/08/14 06:00:25;;;;;;;18.30;13.15;;;;;;;16.63;100.00;101416.41;5014598;28;20025;-69
2023/08/14 06:02:51;;;;;;;17.95;12.82;;;;;;;16.65;100.00;101421.56;5008613;28;20092;-69
2023/08/14 06:05:16;;;;;;;17.42;12.55;;;;;;;16.66;100.00;101421.38;5014863;28;20036;-69
2023/08/14 06:07:41;;;;;;;18.60;13.40;;;;;;;16.69;100.00;101421.00;5015092;28;20029;-68
2023/08/14 06:10:07;;;;;;;17.92;13.07;;;;;;;16.74;100.00;101431.13;5019616;28;20237;-69
2023/08/14 06:12:32;;;;;;;17.13;13.48;;;;;;;16.76;100.00;101426.41;5014126;28;20025;-69
2023/08/14 06:14:58;;;;;;;19.50;13.20;;;;;;;16.78;100.00;101427.06;5015864;28;20029;-69
2023/08/14 06:17:24;;;;;;;17.70;12.95;;;;;;;16.85;100.00;101440.50;5013381;28;20032;-69
2023/08/14 06:19:50;;;;;;;18.25;12.77;;;;;;;16.89;99.91;101441.75;5017681;28;20064;-69
2023/08/14 06:22:16;;;;;;;16.20;12.10;;;;;;;16.93;99.63;101435.81;5009780;28;20623;-69
2023/08/14 06:24:41;;;;;;;19.90;13.02;;;;;;;16.99;99.64;101426.94;5009143;28;20100;-69
2023/08/14 06:27:06;;;;;;;17.13;12.60;;;;;;;17.03;99.96;101428.22;5019515;28;20168;-69
2023/08/14 06:29:32;;;;;;;19.33;13.10;;;;;;;17.08;99.88;101424.13;5015096;28;20037;-70
2023/08/14 06:31:57;;;;;;;18.42;12.68;;;;;;;17.16;99.84;101424.78;5014434;28;20533;-69
2023/08/14 06:34:23;;;;;;;15.57;12.98;;;;;;;17.20;99.98;101433.25;5018209;28;20021;-70
2023/08/14 06:36:48;;;;;;;16.20;13.10;;;;;;;17.25;100.00;101423.56;5017034;28;20038;-69
2023/08/14 06:39:13;;;;;;;16.73;13.43;;;;;;;17.36;99.93;101418.69;5019965;28;20024;-69
2023/08/14 06:41:39;;;;;;;16.88;12.98;;;;;;;17.47;100.00;101421.59;5026371;28;20032;-68
2023/08/14 06:44:09;;;;;;;16.92;13.07;;;;;;;17.58;100.00;101414.81;5020837;28;20022;-70
2023/08/14 06:46:35;;;;;;;20.02;13.25;;;;;;;17.69;100.00;101408.88;5023415;28;20112;-69
2023/08/14 06:49:00;;;;;;;18.95;12.90;;;;;;;17.75;99.79;101415.31;5020247;28;20109;-69
2023/08/14 06:51:25;;;;;;;19.13;12.82;;;;;;;17.80;99.35;101410.13;5021060;28;20026;-69
2023/08/14 06:53:51;;;;;;;19.10;12.40;;;;;;;17.89;99.23;101396.28;5016627;28;20124;-69
2023/08/14 06:56:16;;;;;;;19.23;12.45;;;;;;;17.93;98.76;101410.16;5026044;28;20025;-69
2023/08/14 06:58:41;;;;;;;19.30;12.23;;;;;;;18.00;98.37;101412.88;5021127;28;20419;-69
2023/08/14 07:01:06;;;;;;;21.30;13.18;;;;;;;18.10;98.29;101402.53;5015420;28;20111;-70
2023/08/14 07:03:32;;;;;;;18.65;12.52;;;;;;;18.17;98.22;101396.09;5024013;28;20040;-69
2023/08/14 07:05:57;;;;;;;17.63;13.13;;;;;;;18.32;98.21;101397.78;5027948;28;20025;-69
2023/08/14 07:08:23;;;;;;;18.95;13.57;;;;;;;18.40;97.96;101402.94;5025315;28;20761;-70
2023/08/14 07:10:49;;;;;;;22.38;13.32;;;;;;;18.50;97.90;101404.19;5018106;28;20545;-69
2023/08/14 07:13:14;;;;;;;17.15;12.32;;;;;;;18.58;97.30;101406.63;5023385;28;20025;-71
2023/08/14 07:15:39;;;;;;;17.15;11.38;;;;;;;18.61;96.63;101402.69;5011626;28;20029;-69
2023/08/14 07:18:05;;;;;;;21.52;11.93;;;;;;;18.65;95.85;101403.97;5021219;28;20036;-70
2023/08/14 07:20:30;;;;;;;16.40;10.65;;;;;;;18.67;95.33;101404.56;5014336;28;20029;-70
2023/08/14 07:22:55;;;;;;;17.90;10.73;;;;;;;18.73;94.92;101405.59;5026537;28;20549;-69
2023/08/14 07:25:21;;;;;;;16.23;10.73;;;;;;;18.75;94.54;101408.91;5026832;28;20033;-69
2023/08/14 07:27:46;;;;;;;18.23;10.68;;;;;;;18.78;94.13;101417.38;5022399;28;20024;-69
2023/08/14 07:30:11;;;;;;;17.05;9.88;;;;;;;18.76;93.31;101414.06;5016313;28;20030;-69
2023/08/14 07:32:37;;;;;;;16.33;9.82;;;;;;;18.76;92.56;101418.63;5021574;28;20645;-72
2023/08/14 07:35:03;;;;;;;14.75;9.55;;;;;;;18.77;92.33;101414.91;5025449;28;20453;-69
2023/08/14 07:37:28;;;;;;;17.00;9.52;;;;;;;18.79;92.01;101416.38;5020114;28;20107;-69
2023/08/14 07:39:54;;;;;;;14.38;9.38;;;;;;;18.83;91.83;101419.47;5024305;28;20052;-69
2023/08/14 07:42:19;;;;;;;18.67;10.00;;;;;;;18.84;91.61;101421.13;5027256;28;20025;-69
2023/08/14 07:44:44;;;;;;;15.48;9.45;;;;;;;18.88;91.64;101433.94;5028106;28;20111;-69
2023/08/14 07:47:10;;;;;;;19.13;9.60;;;;;;;18.93;91.33;101443.22;5015624;28;20399;-69
2023/08/14 07:49:36;;;;;;;17.92;10.02;;;;;;;19.00;91.78;101438.66;5012450;28;20032;-70
2023/08/14 07:52:01;;;;;;;16.50;10.10;;;;;;;19.02;91.34;101434.72;5026201;28;20081;-70
2023/08/14 07:54:27;;;;;;;18.77;10.05;;;;;;;19.12;90.83;101426.22;5027530;28;20099;-69
2023/08/14 07:56:53;;;;;;;17.70;9.88;;;;;;;19.19;91.13;101427.84;5017958;28;20039;-69
2023/08/14 07:59:19;;;;;;;16.30;9.23;;;;;;;19.29;90.80;101434.63;5023324;28;20034;-69
2023/08/14 08:01:44;;;;;;;17.17;9.50;;;;;;;19.39;90.26;101427.75;5028470;28;21165;-70
2023/08/14 08:04:09;;;;;;;15.57;9.00;;;;;;;19.46;90.05;101425.03;5023429;28;20511;-69
2023/08/14 08:06:35;;;;;;;15.45;8.68;;;;;;;19.56;89.42;101425.41;5025319;28;20025;-69
2023/08/14 08:09:00;;;;;;;16.05;8.45;;;;;;;19.63;88.73;101433.44;5017120;28;20030;-70
2023/08/14 08:11:25;;;;;;;11.07;7.28;;;;;;;19.72;88.53;101433.00;5018257;28;20034;-68
2023/08/14 08:13:51;;;;;;;15.88;7.70;;;;;;;19.81;87.88;101422.78;5018053;28;20084;-69
2023/08/14 08:16:17;;;;;;;16.10;7.82;;;;;;;19.89;87.68;101424.38;5018868;28;20030;-69
2023/08/14 08:18:42;;;;;;;18.02;7.80;;;;;;;19.94;86.74;101416.47;5018966;28;20101;-68
2023/08/14 08:21:07;;;;;;;13.10;7.57;;;;;;;19.97;85.85;101419.56;5021901;28;20049;-69
2023/08/14 08:23:32;;;;;;;11.35;6.60;;;;;;;20.07;86.03;101413.69;5027484;28;20033;-69
2023/08/14 08:25:58;;;;;;;15.00;6.70;;;;;;;20.09;85.37;101412.41;5016930;28;20028;-69
2023/08/14 08:28:23;;;;;;;13.95;6.88;;;;;;;20.16;85.05;101406.13;5027396;28;20083;-69
2023/08/14 08:30:48;;;;;;;9.95;5.78;;;;;;;20.25;85.17;101402.97;5013508;28;20029;-69
2023/08/14 08:33:13;;;;;;;16.33;5.75;;;;;;;20.26;84.40;101403.78;5015570;28;20535;-69
2023/08/14 08:35:39;;;;;;;15.55;5.90;;;;;;;20.32;84.17;101398.34;5016372;28;20048;-69
2023/08/14 08:38:04;;;;;;;9.32;4.45;;;;;;;20.35;83.35;101397.06;5020568;28;20029;-68
2023/08/14 08:40:31;;;;;;;11.40;4.05;;;;;;;20.40;81.99;101391.84;5028655;28;20629;-69
2023/08/14 08:43:00;;;;;;;8.27;3.97;;;;;;;20.54;82.45;101396.09;5021482;28;20462;-68
2023/08/14 08:45:31;;;;;;;8.13;3.00;;;;;;;20.58;81.47;101385.66;5025036;28;20029;-68
2023/08/14 08:47:59;;;;;;;9.27;2.95;;;;;;;20.66;80.19;101390.78;5015908;28;20049;-68
2023/08/14 08:50:26;;;;;;;6.60;2.60;;;;;;;20.67;79.40;101385.16;5028383;28;20572;-69
2023/08/14 08:52:53;;;;;;;9.45;2.90;;;;;;;20.78;78.86;101385.44;5023166;28;20021;-68
2023/08/14 08:55:18;;;;;;;8.15;2.90;;;;;;;20.84;77.93;101389.97;5018297;28;20026;-68
2023/08/14 08:57:44;;;;;;;7.47;2.67;;;;;;;20.90;76.99;101389.06;5027030;28;20432;-68
2023/08/14 09:00:09;;;;;;;9.30;2.50;;;;;;;20.97;76.50;101390.63;5028946;28;20064;-68
2023/08/14 09:02:35;;;;;;;7.05;2.28;;;;;;;21.05;76.25;101394.88;5027318;28;20025;-69
2023/08/14 09:05:00;;;;;;;8.68;2.60;;;;;;;21.17;76.17;101384.16;5018383;28;20125;-68
2023/08/14 09:07:26;;;;;;;8.18;2.70;;;;;;;21.30;76.44;101375.91;5028214;28;20528;-70
2023/08/14 09:09:51;;;;;;;8.52;2.47;;;;;;;21.41;75.88;101379.72;5028123;28;20029;-68
2023/08/14 09:12:16;;;;;;;13.73;2.70;;;;;;;21.48;75.24;101377.75;5024271;28;20026;-68
2023/08/14 09:14:58;;;;;;;9.38;2.90;;;;;;;21.52;73.58;101389.75;5020753;28;20053;-69
2023/08/14 09:17:24;;;;;;;6.85;2.30;;;;;;;21.66;73.34;101391.19;5020147;28;20043;-69
2023/08/14 09:19:49;;;;;;;9.48;2.33;;;;;;;21.90;73.46;101387.50;5023955;28;20017;-68
2023/08/14 09:22:14;;;;;;;8.25;2.25;;;;;;;22.08;72.04;101393.94;5021878;28;20021;-68
2023/08/14 09:24:41;;;;;;;6.68;2.25;;;;;;;22.35;71.82;101392.41;5025836;28;20050;-68
2023/08/14 09:27:06;;;;;;;3.25;1.75;;;;;;;22.40;69.21;101395.25;5022608;28;20017;-69
2023/08/14 09:29:33;;;;;;;6.80;2.00;;;;;;;22.59;68.05;101397.84;5024820;28;20483;-69
2023/08/14 09:32:00;;;;;;;5.93;2.00;;;;;;;22.67;66.86;101411.00;5011716;28;20017;-68
2023/08/14 09:34:25;;;;;;;6.60;2.00;;;;;;;22.73;65.68;101393.81;5025161;28;20029;-69
2023/08/14 09:36:50;;;;;;;6.70;2.00;;;;;;;22.77;64.51;101398.50;5015993;28;20033;-69
2023/08/14 09:39:16;;;;;;;7.78;1.88;;;;;;;22.84;63.83;101401.97;5021495;28;20036;-69
2023/08/14 09:41:46;;;;;;;6.20;1.90;;;;;;;23.06;63.62;101410.25;5024234;28;20028;-69
2023/08/14 09:44:11;;;;;;;5.75;1.70;;;;;;;23.20;63.65;101412.72;5023841;28;20013;-69
2023/08/14 09:46:37;;;;;;;7.40;2.28;;;;;;;23.30;62.69;101412.91;5024617;28;20153;-69
2023/08/14 09:49:02;;;;;;;7.22;2.20;;;;;;;23.49;62.79;101398.94;5022462;28;20022;-70
2023/08/14 09:51:27;;;;;;;5.55;1.55;;;;;;;23.74;62.80;101404.03;5017008;28;20080;-70
2023/08/14 09:53:56;;;;;;;6.70;1.90;;;;;;;23.77;60.87;101402.72;5027540;28;20072;-70
2023/08/14 09:56:21;;;;;;;7.45;1.70;;;;;;;23.90;61.23;101396.16;5021359;28;20022;-69
2023/08/14 09:58:47;;;;;;;5.95;1.77;;;;;;;24.09;60.60;101394.84;5025476;28;20112;-68
2023/08/14 10:01:15;;;;;;;5.97;1.73;;;;;;;24.05;58.97;101386.38;5023733;28;20033;-69
2023/08/14 10:03:43;;;;;;;6.35;1.83;;;;;;;24.15;58.03;101385.72;5021745;28;20026;-68
2023/08/14 10:06:13;;;;;;;6.57;1.60;;;;;;;23.95;56.60;101379.94;5024269;28;20017;-68
2023/08/14 10:08:42;;;;;;;5.10;1.70;;;;;;;24.01;57.10;101374.38;5023593;28;20033;-68
2023/08/14 10:11:11;;;;;;;9.25;2.00;;;;;;;24.17;58.55;101378.13;5025071;28;20025;-69
2023/08/14 10:13:42;;;;;;;6.22;1.70;;;;;;;24.33;58.33;101380.06;5022599;28;20078;-69
2023/08/14 10:16:11;;;;;;;5.38;1.90;;;;;;;24.43;57.24;101379.38;5028050;28;20022;-69
2023/08/14 10:18:40;;;;;;;6.88;1.80;;;;;;;24.57;56.03;101366.25;5018221;28;20408;-69
2023/08/14 10:21:11;;;;;;;9.73;2.13;;;;;;;24.45;54.86;101360.13;5028175;28;20036;-69
2023/08/14 10:23:37;;;;;;;5.22;1.95;;;;;;;24.51;55.20;101357.22;5015418;28;20014;-69
2023/08/14 10:26:03;;;;;;;6.30;1.92;;;;;;;24.45;54.38;101351.97;5011738;28;20040;-69
2023/08/14 10:28:30;;;;;;;8.73;1.80;;;;;;;24.34;53.90;101342.88;5017512;28;20419;-69
2023/08/14 10:30:56;;;;;;;6.30;1.88;;;;;;;24.55;54.44;101341.25;5013296;28;20054;-69
2023/08/14 10:33:22;;;;;;;5.90;1.70;;;;;;;24.58;54.46;101333.44;5015836;28;20029;-69
2023/08/14 10:35:55;;;;;;;9.20;2.15;;;;;;;24.59;53.53;101328.84;5010028;28;20053;-69
2023/08/14 10:38:22;;;;;;;4.93;1.80;;;;;;;24.63;53.09;101327.25;5010784;28;20037;-67
2023/08/14 10:40:55;;;;;;;5.22;2.03;;;;;;;24.78;53.06;101326.59;5008020;28;20718;-68
2023/08/14 10:43:26;;;;;;;6.80;1.90;;;;;;;24.84;52.79;101320.97;5014443;28;20042;-69
2023/08/14 10:45:52;;;;;;;4.80;1.80;;;;;;;24.93;53.29;101321.38;5012759;28;20545;-69
2023/08/14 10:48:19;;;;;;;11.20;1.88;;;;;;;24.97;52.79;101330.66;5010333;28;20037;-68
2023/08/14 10:50:47;;;;;;;5.25;1.85;;;;;;;24.77;51.05;101323.06;5010501;28;20017;-68
2023/08/14 10:53:15;;;;;;;7.85;1.90;;;;;;;24.90;51.87;101328.13;5010161;28;20030;-68
2023/08/14 10:55:45;;;;;;;5.57;1.90;;;;;;;25.02;51.97;101325.31;5004114;28;20061;-67
2023/08/14 10:58:31;;;;;;;6.70;1.80;;;;;;;25.16;52.03;101317.59;5010092;28;20521;-68
2023/08/14 11:00:58;;;;;;;4.07;1.90;;;;;;;25.20;52.23;101313.28;5015727;28;20033;-68
2023/08/14 11:03:24;;;;;;;6.20;1.92;;;;;;;25.13;52.56;101320.78;5018617;28;20025;-67
2023/08/14 11:05:49;;;;;;;4.85;1.73;;;;;;;25.25;52.34;101324.19;5008155;28;20096;-67
2023/08/14 11:08:16;;;;;;;7.05;2.15;;;;;;;25.38;52.65;101323.78;5010536;28;20106;-67
2023/08/14 11:10:42;;;;;;;7.10;2.15;;;;;;;25.60;52.59;101329.97;5020369;28;20018;-68
2023/08/14 11:13:09;;;;;;;5.53;1.90;;;;;;;25.69;52.24;101330.34;5028481;28;20079;-67